sensor_id;sensor_type;location;lat;lon;timestamp;temperature;humidity
38848;DHT22;24602;44.780;20.408;2022-09-03T00:11:13;16.80;99.90
38848;DHT22;24602;44.780;20.408;2022-09-03T00:14:05;16.80;99.90
38848;DHT22;24602;44.780;20.408;2022-09-03T00:17:13;16.80;99.90
38848;DHT22;24602;44.780;20.408;2022-09-03T00:20:04;16.80;99.90
38848;DHT22;24602;44.780;20.408;2022-09-03T00:22:54;16.80;99.90
38848;DHT22;24602;44.780;20.408;2022-09-03T00:25:44;16.80;99.90
38848;DHT22;24602;44.780;20.408;2022-09-03T00:28:48;16.80;99.90
38848;DHT22;24602;44.780;20.408;2022-09-03T00:31:33;16.80;99.90
38848;DHT22;24602;44.780;20.408;2022-09-03T00:36:52;16.80;99.90
38848;DHT22;24602;44.780;20.408;2022-09-03T00:39:23;16.80;99.90
38848;DHT22;24602;44.780;20.408;2022-09-03T00:51:18;16.90;99.90
38848;DHT22;24602;44.780;20.408;2022-09-03T00:54:15;16.90;99.90
38848;DHT22;24602;44.780;20.408;2022-09-03T00:57:01;16.80;99.90
38848;DHT22;24602;44.780;20.408;2022-09-03T01:02:24;16.80;99.90
38848;DHT22;24602;44.780;20.408;2022-09-03T01:26:30;16.80;99.90
38848;DHT22;24602;44.780;20.408;2022-09-03T01:35:52;16.80;99.90
38848;DHT22;24602;44.780;20.408;2022-09-03T01:39:04;16.80;99.90
38848;DHT22;24602;44.780;20.408;2022-09-03T01:41:58;16.90;99.90
38848;DHT22;24602;44.780;20.408;2022-09-03T01:50:50;16.90;99.90
38848;DHT22;24602;44.780;20.408;2022-09-03T02:00:08;16.90;99.90
38848;DHT22;24602;44.780;20.408;2022-09-03T02:02:45;16.90;99.90
38848;DHT22;24602;44.780;20.408;2022-09-03T02:05:21;16.90;99.90
38848;DHT22;24602;44.780;20.408;2022-09-03T02:08:02;17.00;99.90
38848;DHT22;24602;44.780;20.408;2022-09-03T02:10:59;16.90;99.90
38848;DHT22;24602;44.780;20.408;2022-09-03T02:13:40;17.00;99.90
38848;DHT22;24602;44.780;20.408;2022-09-03T02:16:18;17.00;99.90
38848;DHT22;24602;44.780;20.408;2022-09-03T02:18:56;17.00;99.90
38848;DHT22;24602;44.780;20.408;2022-09-03T02:21:35;17.00;99.90
38848;DHT22;24602;44.780;20.408;2022-09-03T02:24:06;17.00;99.90
38848;DHT22;24602;44.780;20.408;2022-09-03T02:26:36;17.00;99.90
38848;DHT22;24602;44.780;20.408;2022-09-03T02:29:04;17.00;99.90
38848;DHT22;24602;44.780;20.408;2022-09-03T02:31:38;17.00;99.90
38848;DHT22;24602;44.780;20.408;2022-09-03T02:34:07;17.00;99.90
38848;DHT22;24602;44.780;20.408;2022-09-03T02:36:45;17.00;99.90
38848;DHT22;24602;44.780;20.408;2022-09-03T02:39:14;17.00;99.90
38848;DHT22;24602;44.780;20.408;2022-09-03T02:41:49;16.90;99.90
38848;DHT22;24602;44.780;20.408;2022-09-03T02:44:30;17.00;99.90
38848;DHT22;24602;44.780;20.408;2022-09-03T02:47:09;16.90;99.90
38848;DHT22;24602;44.780;20.408;2022-09-03T02:49:39;16.90;99.90
38848;DHT22;24602;44.780;20.408;2022-09-03T02:52:09;16.80;99.90
38848;DHT22;24602;44.780;20.408;2022-09-03T02:54:41;16.80;99.90
38848;DHT22;24602;44.780;20.408;2022-09-03T02:57:11;16.80;99.90
38848;DHT22;24602;44.780;20.408;2022-09-03T02:59:41;16.80;99.90
38848;DHT22;24602;44.780;20.408;2022-09-03T03:02:17;16.80;99.90
38848;DHT22;24602;44.780;20.408;2022-09-03T03:04:49;16.80;99.90
38848;DHT22;24602;44.780;20.408;2022-09-03T03:07:19;16.80;99.90
38848;DHT22;24602;44.780;20.408;2022-09-03T03:09:50;16.80;99.90
38848;DHT22;24602;44.780;20.408;2022-09-03T03:12:19;16.80;99.90
38848;DHT22;24602;44.780;20.408;2022-09-03T03:14:49;16.80;99.90
38848;DHT22;24602;44.780;20.408;2022-09-03T03:17:18;16.80;99.90
38848;DHT22;24602;44.780;20.408;2022-09-03T03:19:51;16.70;99.90
38848;DHT22;24602;44.780;20.408;2022-09-03T03:22:23;16.70;99.90
38848;DHT22;24602;44.780;20.408;2022-09-03T03:24:53;16.70;99.90
38848;DHT22;24602;44.780;20.408;2022-09-03T03:27:24;16.70;99.90
38848;DHT22;24602;44.780;20.408;2022-09-03T03:29:57;16.70;99.90
38848;DHT22;24602;44.780;20.408;2022-09-03T03:32:28;16.70;99.90
38848;DHT22;24602;44.780;20.408;2022-09-03T03:35:00;16.70;99.90
38848;DHT22;24602;44.780;20.408;2022-09-03T03:37:34;16.70;99.90
38848;DHT22;24602;44.780;20.408;2022-09-03T03:40:07;16.60;99.90
38848;DHT22;24602;44.780;20.408;2022-09-03T03:42:38;16.60;99.90
38848;DHT22;24602;44.780;20.408;2022-09-03T03:45:08;16.60;99.90
38848;DHT22;24602;44.780;20.408;2022-09-03T03:47:39;16.60;99.90
38848;DHT22;24602;44.780;20.408;2022-09-03T03:50:11;16.60;99.90
38848;DHT22;24602;44.780;20.408;2022-09-03T03:52:41;16.60;99.90
38848;DHT22;24602;44.780;20.408;2022-09-03T03:55:12;16.50;99.90
38848;DHT22;24602;44.780;20.408;2022-09-03T03:57:43;16.60;99.90
38848;DHT22;24602;44.780;20.408;2022-09-03T04:00:15;16.60;99.90
38848;DHT22;24602;44.780;20.408;2022-09-03T04:02:52;16.50;99.90
38848;DHT22;24602;44.780;20.408;2022-09-03T04:05:24;16.60;99.90
38848;DHT22;24602;44.780;20.408;2022-09-03T04:08:01;16.50;99.90
38848;DHT22;24602;44.780;20.408;2022-09-03T04:10:38;16.50;99.90
38848;DHT22;24602;44.780;20.408;2022-09-03T04:13:07;16.50;99.90
38848;DHT22;24602;44.780;20.408;2022-09-03T04:15:39;16.50;99.90
38848;DHT22;24602;44.780;20.408;2022-09-03T04:18:11;16.60;99.90
38848;DHT22;24602;44.780;20.408;2022-09-03T04:20:40;16.50;99.90
38848;DHT22;24602;44.780;20.408;2022-09-03T04:23:15;16.60;99.90
38848;DHT22;24602;44.780;20.408;2022-09-03T04:25:43;16.50;99.90
38848;DHT22;24602;44.780;20.408;2022-09-03T04:28:22;16.50;99.90
38848;DHT22;24602;44.780;20.408;2022-09-03T04:30:52;16.50;99.90
38848;DHT22;24602;44.780;20.408;2022-09-03T04:33:26;16.50;99.90
38848;DHT22;24602;44.780;20.408;2022-09-03T04:36:17;16.60;99.90
38848;DHT22;24602;44.780;20.408;2022-09-03T04:38:50;16.60;99.90
38848;DHT22;24602;44.780;20.408;2022-09-03T04:41:23;16.60;99.90
38848;DHT22;24602;44.780;20.408;2022-09-03T04:43:56;16.60;99.90
38848;DHT22;24602;44.780;20.408;2022-09-03T04:46:27;16.60;99.90
38848;DHT22;24602;44.780;20.408;2022-09-03T04:49:02;16.60;99.90
38848;DHT22;24602;44.780;20.408;2022-09-03T04:51:33;16.60;99.90
38848;DHT22;24602;44.780;20.408;2022-09-03T04:54:10;16.70;99.90
38848;DHT22;24602;44.780;20.408;2022-09-03T04:56:40;16.70;99.90
38848;DHT22;24602;44.780;20.408;2022-09-03T04:59:10;16.70;99.90
38848;DHT22;24602;44.780;20.408;2022-09-03T05:01:44;16.60;99.90
38848;DHT22;24602;44.780;20.408;2022-09-03T05:04:11;16.70;99.90
38848;DHT22;24602;44.780;20.408;2022-09-03T05:06:41;16.70;99.90
38848;DHT22;24602;44.780;20.408;2022-09-03T05:09:09;16.70;99.90
38848;DHT22;24602;44.780;20.408;2022-09-03T05:11:40;16.80;99.90
38848;DHT22;24602;44.780;20.408;2022-09-03T05:14:08;16.80;99.90
38848;DHT22;24602;44.780;20.408;2022-09-03T05:16:39;16.90;99.90
38848;DHT22;24602;44.780;20.408;2022-09-03T05:19:20;16.90;99.90
38848;DHT22;24602;44.780;20.408;2022-09-03T05:21:57;16.90;99.90
38848;DHT22;24602;44.780;20.408;2022-09-03T05:24:27;17.00;99.90
38848;DHT22;24602;44.780;20.408;2022-09-03T05:26:57;17.00;99.90
38848;DHT22;24602;44.780;20.408;2022-09-03T05:29:27;17.00;99.90
38848;DHT22;24602;44.780;20.408;2022-09-03T05:31:55;17.10;99.90
38848;DHT22;24602;44.780;20.408;2022-09-03T05:34:33;17.10;99.90
38848;DHT22;24602;44.780;20.408;2022-09-03T05:37:05;17.10;99.90
38848;DHT22;24602;44.780;20.408;2022-09-03T05:39:37;17.10;99.90
38848;DHT22;24602;44.780;20.408;2022-09-03T05:42:08;17.20;99.90
38848;DHT22;24602;44.780;20.408;2022-09-03T05:44:40;17.20;99.90
38848;DHT22;24602;44.780;20.408;2022-09-03T05:47:11;17.20;99.90
38848;DHT22;24602;44.780;20.408;2022-09-03T05:49:42;17.20;99.90
38848;DHT22;24602;44.780;20.408;2022-09-03T05:52:10;17.20;99.90
38848;DHT22;24602;44.780;20.408;2022-09-03T05:54:43;17.30;99.90
38848;DHT22;24602;44.780;20.408;2022-09-03T05:57:12;17.30;99.90
38848;DHT22;24602;44.780;20.408;2022-09-03T05:59:43;17.30;99.90
38848;DHT22;24602;44.780;20.408;2022-09-03T06:02:13;17.30;99.90
38848;DHT22;24602;44.780;20.408;2022-09-03T06:04:47;17.30;99.90
38848;DHT22;24602;44.780;20.408;2022-09-03T06:07:18;17.30;99.90
38848;DHT22;24602;44.780;20.408;2022-09-03T06:09:49;17.30;99.90
38848;DHT22;24602;44.780;20.408;2022-09-03T06:12:22;17.40;99.90
38848;DHT22;24602;44.780;20.408;2022-09-03T06:14:53;17.40;99.90
38848;DHT22;24602;44.780;20.408;2022-09-03T06:17:25;17.50;99.90
38848;DHT22;24602;44.780;20.408;2022-09-03T06:19:57;17.40;99.90
38848;DHT22;24602;44.780;20.408;2022-09-03T06:22:32;17.40;99.90
38848;DHT22;24602;44.780;20.408;2022-09-03T06:25:00;17.40;99.90
38848;DHT22;24602;44.780;20.408;2022-09-03T06:27:35;17.40;99.90
38848;DHT22;24602;44.780;20.408;2022-09-03T06:30:05;17.50;99.90
38848;DHT22;24602;44.780;20.408;2022-09-03T06:32:49;17.50;99.90
38848;DHT22;24602;44.780;20.408;2022-09-03T06:35:21;17.60;99.90
38848;DHT22;24602;44.780;20.408;2022-09-03T06:37:56;17.60;99.90
38848;DHT22;24602;44.780;20.408;2022-09-03T06:40:28;17.60;99.90
38848;DHT22;24602;44.780;20.408;2022-09-03T06:43:02;17.60;99.90
38848;DHT22;24602;44.780;20.408;2022-09-03T06:45:36;17.60;99.90
38848;DHT22;24602;44.780;20.408;2022-09-03T06:48:12;17.60;99.90
38848;DHT22;24602;44.780;20.408;2022-09-03T06:50:56;17.60;99.90
38848;DHT22;24602;44.780;20.408;2022-09-03T06:53:26;17.50;99.90
38848;DHT22;24602;44.780;20.408;2022-09-03T06:56:01;17.60;99.90
38848;DHT22;24602;44.780;20.408;2022-09-03T06:58:40;17.80;99.90
38848;DHT22;24602;44.780;20.408;2022-09-03T07:01:18;17.90;99.90
38848;DHT22;24602;44.780;20.408;2022-09-03T07:03:57;17.90;99.90
38848;DHT22;24602;44.780;20.408;2022-09-03T07:06:38;17.90;99.90
38848;DHT22;24602;44.780;20.408;2022-09-03T07:09:09;17.90;99.90
38848;DHT22;24602;44.780;20.408;2022-09-03T07:11:40;17.90;99.90
38848;DHT22;24602;44.780;20.408;2022-09-03T07:14:22;17.90;99.90
38848;DHT22;24602;44.780;20.408;2022-09-03T07:16:57;18.00;99.90
38848;DHT22;24602;44.780;20.408;2022-09-03T07:19:27;18.00;99.90
38848;DHT22;24602;44.780;20.408;2022-09-03T07:21:56;18.10;99.90
38848;DHT22;24602;44.780;20.408;2022-09-03T07:24:24;18.10;99.90
38848;DHT22;24602;44.780;20.408;2022-09-03T07:26:56;18.10;99.90
38848;DHT22;24602;44.780;20.408;2022-09-03T07:29:26;18.10;99.90
38848;DHT22;24602;44.780;20.408;2022-09-03T07:31:58;18.10;99.90
38848;DHT22;24602;44.780;20.408;2022-09-03T07:34:28;18.10;99.90
38848;DHT22;24602;44.780;20.408;2022-09-03T07:36:59;18.20;99.90
38848;DHT22;24602;44.780;20.408;2022-09-03T07:39:31;18.20;99.90
38848;DHT22;24602;44.780;20.408;2022-09-03T07:42:03;18.30;99.90
38848;DHT22;24602;44.780;20.408;2022-09-03T07:44:35;18.30;99.90
38848;DHT22;24602;44.780;20.408;2022-09-03T07:47:06;18.30;99.90
38848;DHT22;24602;44.780;20.408;2022-09-03T07:49:36;18.40;99.90
38848;DHT22;24602;44.780;20.408;2022-09-03T07:52:07;18.40;99.90
38848;DHT22;24602;44.780;20.408;2022-09-03T07:54:44;18.50;99.90
38848;DHT22;24602;44.780;20.408;2022-09-03T07:57:17;18.60;99.90
38848;DHT22;24602;44.780;20.408;2022-09-03T07:59:52;18.60;99.90
38848;DHT22;24602;44.780;20.408;2022-09-03T08:02:21;18.60;99.90
38848;DHT22;24602;44.780;20.408;2022-09-03T08:04:51;18.50;99.90
38848;DHT22;24602;44.780;20.408;2022-09-03T08:07:23;18.50;99.90
38848;DHT22;24602;44.780;20.408;2022-09-03T08:09:55;18.60;99.90
38848;DHT22;24602;44.780;20.408;2022-09-03T08:12:27;18.70;99.90
38848;DHT22;24602;44.780;20.408;2022-09-03T08:15:01;18.80;99.90
38848;DHT22;24602;44.780;20.408;2022-09-03T08:17:32;18.90;99.90
38848;DHT22;24602;44.780;20.408;2022-09-03T08:20:03;19.00;99.90
38848;DHT22;24602;44.780;20.408;2022-09-03T08:22:35;19.10;99.90
38848;DHT22;24602;44.780;20.408;2022-09-03T08:25:05;19.20;99.90
38848;DHT22;24602;44.780;20.408;2022-09-03T08:27:40;19.30;99.90
38848;DHT22;24602;44.780;20.408;2022-09-03T08:30:12;19.30;99.90
38848;DHT22;24602;44.780;20.408;2022-09-03T08:32:45;19.30;99.90
38848;DHT22;24602;44.780;20.408;2022-09-03T08:35:16;19.30;99.90
38848;DHT22;24602;44.780;20.408;2022-09-03T08:37:45;19.20;99.90
38848;DHT22;24602;44.780;20.408;2022-09-03T08:40:15;19.20;99.90
38848;DHT22;24602;44.780;20.408;2022-09-03T08:43:13;19.20;99.90
38848;DHT22;24602;44.780;20.408;2022-09-03T08:45:47;19.10;99.90
38848;DHT22;24602;44.780;20.408;2022-09-03T08:48:20;19.20;99.90
38848;DHT22;24602;44.780;20.408;2022-09-03T08:50:58;19.20;99.90
38848;DHT22;24602;44.780;20.408;2022-09-03T08:53:42;19.40;99.90
38848;DHT22;24602;44.780;20.408;2022-09-03T08:56:31;19.40;99.90
38848;DHT22;24602;44.780;20.408;2022-09-03T08:59:05;19.60;99.90
38848;DHT22;24602;44.780;20.408;2022-09-03T09:05:41;19.70;99.90
38848;DHT22;24602;44.780;20.408;2022-09-03T09:11:49;19.80;99.90
38848;DHT22;24602;44.780;20.408;2022-09-03T09:14:30;19.80;99.90
38848;DHT22;24602;44.780;20.408;2022-09-03T09:26:05;19.80;99.90
38848;DHT22;24602;44.780;20.408;2022-09-03T09:28:39;19.90;99.90
38848;DHT22;24602;44.780;20.408;2022-09-03T09:31:13;20.00;99.90
38848;DHT22;24602;44.780;20.408;2022-09-03T09:33:48;20.10;99.90
38848;DHT22;24602;44.780;20.408;2022-09-03T09:36:19;20.20;99.90
38848;DHT22;24602;44.780;20.408;2022-09-03T09:38:52;20.20;99.90
38848;DHT22;24602;44.780;20.408;2022-09-03T09:41:24;20.30;99.90
38848;DHT22;24602;44.780;20.408;2022-09-03T09:44:05;20.30;99.90
38848;DHT22;24602;44.780;20.408;2022-09-03T09:46:38;20.40;99.90
38848;DHT22;24602;44.780;20.408;2022-09-03T09:49:34;20.50;99.90
38848;DHT22;24602;44.780;20.408;2022-09-03T09:52:15;20.50;99.90
38848;DHT22;24602;44.780;20.408;2022-09-03T09:54:44;20.50;99.90
38848;DHT22;24602;44.780;20.408;2022-09-03T09:57:21;20.50;99.90
38848;DHT22;24602;44.780;20.408;2022-09-03T10:00:04;20.50;99.90
38848;DHT22;24602;44.780;20.408;2022-09-03T10:02:51;20.50;99.90
38848;DHT22;24602;44.780;20.408;2022-09-03T10:05:32;20.60;99.90
38848;DHT22;24602;44.780;20.408;2022-09-03T10:08:03;20.60;99.90
38848;DHT22;24602;44.780;20.408;2022-09-03T10:10:41;20.60;99.90
38848;DHT22;24602;44.780;20.408;2022-09-03T10:13:21;20.60;99.90
38848;DHT22;24602;44.780;20.408;2022-09-03T10:19:04;20.60;99.90
38848;DHT22;24602;44.780;20.408;2022-09-03T10:22:11;20.70;99.90
38848;DHT22;24602;44.780;20.408;2022-09-03T10:24:59;20.80;99.90
38848;DHT22;24602;44.780;20.408;2022-09-03T10:27:29;20.80;99.90
38848;DHT22;24602;44.780;20.408;2022-09-03T10:30:00;20.90;99.90
38848;DHT22;24602;44.780;20.408;2022-09-03T10:32:32;20.90;99.90
38848;DHT22;24602;44.780;20.408;2022-09-03T10:35:33;21.00;99.90
38848;DHT22;24602;44.780;20.408;2022-09-03T10:38:33;21.00;99.90
38848;DHT22;24602;44.780;20.408;2022-09-03T10:51:05;21.10;99.90
38848;DHT22;24602;44.780;20.408;2022-09-03T11:00:10;21.00;99.90
38848;DHT22;24602;44.780;20.408;2022-09-03T11:08:43;21.30;99.90
38848;DHT22;24602;44.780;20.408;2022-09-03T11:12:21;21.50;99.90
38848;DHT22;24602;44.780;20.408;2022-09-03T11:14:31;21.60;99.90
38848;DHT22;24602;44.780;20.408;2022-09-03T11:17:19;21.80;99.90
38848;DHT22;24602;44.780;20.408;2022-09-03T11:20:21;21.90;99.90
38848;DHT22;24602;44.780;20.408;2022-09-03T11:22:56;21.90;99.90
38848;DHT22;24602;44.780;20.408;2022-09-03T11:25:45;22.00;99.90
38848;DHT22;24602;44.780;20.408;2022-09-03T11:28:57;22.10;99.90
38848;DHT22;24602;44.780;20.408;2022-09-03T11:34:54;22.40;99.90
38848;DHT22;24602;44.780;20.408;2022-09-03T11:37:29;22.50;99.90
38848;DHT22;24602;44.780;20.408;2022-09-03T11:40:15;22.50;99.90
38848;DHT22;24602;44.780;20.408;2022-09-03T11:43:29;22.30;99.90
38848;DHT22;24602;44.780;20.408;2022-09-03T11:48:56;22.00;99.90
38848;DHT22;24602;44.780;20.408;2022-09-03T11:51:39;21.90;99.90
38848;DHT22;24602;44.780;20.408;2022-09-03T11:56:44;22.10;99.90
38848;DHT22;24602;44.780;20.408;2022-09-03T11:59:22;22.20;99.90
38848;DHT22;24602;44.780;20.408;2022-09-03T12:08:38;23.10;99.90
38848;DHT22;24602;44.780;20.408;2022-09-03T12:18:08;24.00;99.90
38848;DHT22;24602;44.780;20.408;2022-09-03T12:23:42;24.00;99.70
38848;DHT22;24602;44.780;20.408;2022-09-03T12:26:17;24.10;99.90
38848;DHT22;24602;44.780;20.408;2022-09-03T12:28:46;24.30;99.90
38848;DHT22;24602;44.780;20.408;2022-09-03T12:31:28;24.60;99.90
38848;DHT22;24602;44.780;20.408;2022-09-03T12:34:09;24.60;99.90
38848;DHT22;24602;44.780;20.408;2022-09-03T12:36:49;24.50;99.00
38848;DHT22;24602;44.780;20.408;2022-09-03T12:39:24;24.60;99.80
38848;DHT22;24602;44.780;20.408;2022-09-03T12:42:21;25.00;98.60
38848;DHT22;24602;44.780;20.408;2022-09-03T12:44:53;25.00;97.90
38848;DHT22;24602;44.780;20.408;2022-09-03T12:47:23;25.20;97.50
38848;DHT22;24602;44.780;20.408;2022-09-03T12:50:23;25.40;97.90
38848;DHT22;24602;44.780;20.408;2022-09-03T12:52:59;26.30;97.40
38848;DHT22;24602;44.780;20.408;2022-09-03T12:55:48;27.10;97.10
38848;DHT22;24602;44.780;20.408;2022-09-03T12:58:30;27.80;94.70
38848;DHT22;24602;44.780;20.408;2022-09-03T13:01:29;28.60;93.00
38848;DHT22;24602;44.780;20.408;2022-09-03T13:04:05;29.90;88.00
38848;DHT22;24602;44.780;20.408;2022-09-03T13:09:40;32.80;71.10
38848;DHT22;24602;44.780;20.408;2022-09-03T13:12:43;33.70;64.30
38848;DHT22;24602;44.780;20.408;2022-09-03T13:15:24;33.40;61.30
38848;DHT22;24602;44.780;20.408;2022-09-03T13:21:19;31.00;64.00
38848;DHT22;24602;44.780;20.408;2022-09-03T13:30:08;26.90;77.20
38848;DHT22;24602;44.780;20.408;2022-09-03T13:39:03;25.30;88.20
38848;DHT22;24602;44.780;20.408;2022-09-03T13:41:52;25.10;90.90
38848;DHT22;24602;44.780;20.408;2022-09-03T13:44:48;25.20;91.50
38848;DHT22;24602;44.780;20.408;2022-09-03T13:48:00;25.60;91.20
38848;DHT22;24602;44.780;20.408;2022-09-03T13:57:14;26.60;86.20
38848;DHT22;24602;44.780;20.408;2022-09-03T14:00:07;25.90;88.40
38848;DHT22;24602;44.780;20.408;2022-09-03T14:03:11;25.40;90.00
38848;DHT22;24602;44.780;20.408;2022-09-03T14:12:42;24.10;94.20
38848;DHT22;24602;44.780;20.408;2022-09-03T14:15:46;23.90;95.00
38848;DHT22;24602;44.780;20.408;2022-09-03T14:21:12;23.70;96.10
38848;DHT22;24602;44.780;20.408;2022-09-03T14:24:06;23.70;96.80
38848;DHT22;24602;44.780;20.408;2022-09-03T14:26:52;23.60;97.90
38848;DHT22;24602;44.780;20.408;2022-09-03T14:29:30;23.50;98.90
38848;DHT22;24602;44.780;20.408;2022-09-03T14:38:25;23.30;99.90
38848;DHT22;24602;44.780;20.408;2022-09-03T14:47:08;23.20;99.90
38848;DHT22;24602;44.780;20.408;2022-09-03T15:01:32;23.40;99.40
38848;DHT22;24602;44.780;20.408;2022-09-03T15:10:45;23.50;99.60
38848;DHT22;24602;44.780;20.408;2022-09-03T15:25:40;23.50;99.80
38848;DHT22;24602;44.780;20.408;2022-09-03T15:37:53;23.30;99.90
38848;DHT22;24602;44.780;20.408;2022-09-03T15:40:49;23.40;99.90
38848;DHT22;24602;44.780;20.408;2022-09-03T15:43:29;23.40;99.90
38848;DHT22;24602;44.780;20.408;2022-09-03T15:46:08;23.50;99.90
38848;DHT22;24602;44.780;20.408;2022-09-03T15:48:56;23.50;99.80
38848;DHT22;24602;44.780;20.408;2022-09-03T15:51:34;23.50;99.90
38848;DHT22;24602;44.780;20.408;2022-09-03T15:54:11;23.60;99.80
38848;DHT22;24602;44.780;20.408;2022-09-03T15:57:29;23.60;99.80
38848;DHT22;24602;44.780;20.408;2022-09-03T16:00:05;23.60;99.90
38848;DHT22;24602;44.780;20.408;2022-09-03T16:03:00;23.60;99.90
38848;DHT22;24602;44.780;20.408;2022-09-03T16:05:54;23.60;99.90
38848;DHT22;24602;44.780;20.408;2022-09-03T16:12:13;23.70;99.70
38848;DHT22;24602;44.780;20.408;2022-09-03T16:15:21;23.60;99.80
38848;DHT22;24602;44.780;20.408;2022-09-03T16:17:59;23.50;99.90
38848;DHT22;24602;44.780;20.408;2022-09-03T16:20:55;23.40;99.90
38848;DHT22;24602;44.780;20.408;2022-09-03T16:23:41;23.30;99.90
38848;DHT22;24602;44.780;20.408;2022-09-03T16:29:25;23.10;99.90
38848;DHT22;24602;44.780;20.408;2022-09-03T17:07:30;22.20;99.90
38848;DHT22;24602;44.780;20.408;2022-09-03T17:31:48;21.80;99.90
38848;DHT22;24602;44.780;20.408;2022-09-03T17:49:16;21.60;99.90
38848;DHT22;24602;44.780;20.408;2022-09-03T17:54:56;21.60;99.90
38848;DHT22;24602;44.780;20.408;2022-09-03T17:58:03;21.50;99.90
38848;DHT22;24602;44.780;20.408;2022-09-03T18:03:53;21.40;99.90
38848;DHT22;24602;44.780;20.408;2022-09-03T18:09:29;21.40;99.90
38848;DHT22;24602;44.780;20.408;2022-09-03T18:12:43;21.30;99.90
38848;DHT22;24602;44.780;20.408;2022-09-03T18:15:36;21.30;99.90
38848;DHT22;24602;44.780;20.408;2022-09-03T18:18:15;21.20;99.90
38848;DHT22;24602;44.780;20.408;2022-09-03T18:20:58;21.10;99.90
38848;DHT22;24602;44.780;20.408;2022-09-03T18:24:22;21.10;99.90
38848;DHT22;24602;44.780;20.408;2022-09-03T18:27:30;21.10;99.90
38848;DHT22;24602;44.780;20.408;2022-09-03T18:30:19;21.00;99.90
38848;DHT22;24602;44.780;20.408;2022-09-03T18:33:09;21.00;99.90
38848;DHT22;24602;44.780;20.408;2022-09-03T18:35:59;21.00;99.90
38848;DHT22;24602;44.780;20.408;2022-09-03T18:38:49;21.00;99.90
38848;DHT22;24602;44.780;20.408;2022-09-03T18:41:50;21.00;99.90
38848;DHT22;24602;44.780;20.408;2022-09-03T18:44:59;20.90;99.90
38848;DHT22;24602;44.780;20.408;2022-09-03T18:48:32;20.90;99.90
38848;DHT22;24602;44.780;20.408;2022-09-03T18:52:03;20.80;99.90
38848;DHT22;24602;44.780;20.408;2022-09-03T18:55:08;20.80;99.90
38848;DHT22;24602;44.780;20.408;2022-09-03T18:58:56;20.80;99.90
38848;DHT22;24602;44.780;20.408;2022-09-03T19:01:39;20.80;99.90
38848;DHT22;24602;44.780;20.408;2022-09-03T19:08:20;20.80;99.90
38848;DHT22;24602;44.780;20.408;2022-09-03T19:14:55;20.80;99.90
38848;DHT22;24602;44.780;20.408;2022-09-03T19:24:29;20.70;99.90
38848;DHT22;24602;44.780;20.408;2022-09-03T19:37:22;20.60;99.90
38848;DHT22;24602;44.780;20.408;2022-09-03T19:47:05;20.60;99.90
38848;DHT22;24602;44.780;20.408;2022-09-03T19:50:22;20.60;99.90
38848;DHT22;24602;44.780;20.408;2022-09-03T19:53:13;20.50;99.90
38848;DHT22;24602;44.780;20.408;2022-09-03T19:56:18;20.50;99.90
38848;DHT22;24602;44.780;20.408;2022-09-03T19:59:16;20.50;99.90
38848;DHT22;24602;44.780;20.408;2022-09-03T20:02:07;20.50;99.90
38848;DHT22;24602;44.780;20.408;2022-09-03T20:05:00;20.40;99.90
38848;DHT22;24602;44.780;20.408;2022-09-03T20:07:57;20.40;99.90
38848;DHT22;24602;44.780;20.408;2022-09-03T20:10:49;20.40;99.90
38848;DHT22;24602;44.780;20.408;2022-09-03T20:13:21;20.30;99.90
38848;DHT22;24602;44.780;20.408;2022-09-03T20:16:14;20.30;99.90
38848;DHT22;24602;44.780;20.408;2022-09-03T20:34:49;20.30;99.90
38848;DHT22;24602;44.780;20.408;2022-09-03T20:40:56;20.30;99.90
38848;DHT22;24602;44.780;20.408;2022-09-03T20:46:56;20.20;99.90
38848;DHT22;24602;44.780;20.408;2022-09-03T20:52:40;20.10;99.90
38848;DHT22;24602;44.780;20.408;2022-09-03T20:56:05;20.10;99.90
38848;DHT22;24602;44.780;20.408;2022-09-03T20:58:22;20.10;99.90
38848;DHT22;24602;44.780;20.408;2022-09-03T21:01:19;20.10;99.90
38848;DHT22;24602;44.780;20.408;2022-09-03T21:10:31;20.00;99.90
38848;DHT22;24602;44.780;20.408;2022-09-03T21:13:44;20.00;99.90
38848;DHT22;24602;44.780;20.408;2022-09-03T21:16:58;19.90;99.90
38848;DHT22;24602;44.780;20.408;2022-09-03T21:19:53;19.90;99.90
38848;DHT22;24602;44.780;20.408;2022-09-03T21:22:50;19.80;99.90
38848;DHT22;24602;44.780;20.408;2022-09-03T21:31:00;19.60;99.90
38848;DHT22;24602;44.780;20.408;2022-09-03T21:33:35;19.60;99.90
38848;DHT22;24602;44.780;20.408;2022-09-03T21:36:10;19.60;99.90
38848;DHT22;24602;44.780;20.408;2022-09-03T21:38:46;19.60;99.90
38848;DHT22;24602;44.780;20.408;2022-09-03T21:41:48;19.60;99.90
38848;DHT22;24602;44.780;20.408;2022-09-03T21:44:53;19.50;99.90
38848;DHT22;24602;44.780;20.408;2022-09-03T21:47:25;19.50;99.90
38848;DHT22;24602;44.780;20.408;2022-09-03T21:50:38;19.50;99.90
38848;DHT22;24602;44.780;20.408;2022-09-03T22:02:12;19.40;99.90
38848;DHT22;24602;44.780;20.408;2022-09-03T22:04:45;19.40;99.90
38848;DHT22;24602;44.780;20.408;2022-09-03T22:15:27;19.20;99.90
38848;DHT22;24602;44.780;20.408;2022-09-03T22:18:22;19.20;99.90
38848;DHT22;24602;44.780;20.408;2022-09-03T22:21:15;19.20;99.90
38848;DHT22;24602;44.780;20.408;2022-09-03T22:27:12;19.30;99.90
38848;DHT22;24602;44.780;20.408;2022-09-03T22:30:07;19.30;99.90
38848;DHT22;24602;44.780;20.408;2022-09-03T22:33:31;19.30;99.90
38848;DHT22;24602;44.780;20.408;2022-09-03T22:36:12;19.30;99.90
38848;DHT22;24602;44.780;20.408;2022-09-03T22:48:13;19.10;99.90
38848;DHT22;24602;44.780;20.408;2022-09-03T22:56:25;18.90;99.90
38848;DHT22;24602;44.780;20.408;2022-09-03T22:59:32;18.90;99.90
38848;DHT22;24602;44.780;20.408;2022-09-03T23:02:19;18.90;99.90
38848;DHT22;24602;44.780;20.408;2022-09-03T23:11:04;18.80;99.90
38848;DHT22;24602;44.780;20.408;2022-09-03T23:13:45;18.70;99.90
38848;DHT22;24602;44.780;20.408;2022-09-03T23:19:45;18.60;99.90
38848;DHT22;24602;44.780;20.408;2022-09-03T23:22:41;18.50;99.90
38848;DHT22;24602;44.780;20.408;2022-09-03T23:25:40;18.60;99.90
38848;DHT22;24602;44.780;20.408;2022-09-03T23:28:33;18.60;99.90
38848;DHT22;24602;44.780;20.408;2022-09-03T23:31:17;18.60;99.90
38848;DHT22;24602;44.780;20.408;2022-09-03T23:33:55;18.60;99.90
38848;DHT22;24602;44.780;20.408;2022-09-03T23:52:24;18.50;99.90
38848;DHT22;24602;44.780;20.408;2022-09-03T23:54:45;18.50;99.90
38848;DHT22;24602;44.780;20.408;2022-09-03T23:57:45;18.50;99.90
